Hlavní strana
METAR-TAF:

METAR-TAF

Letiště :

MidCoast Regional Airport / Wright Army Airfield

Hinesville, Georgie, Spojené státy americké

zeměpisná šířka: 31-53N, zeměpisná délka: 081-34W, výška: 14 m

Aktuální stav počasí

Zpráva byla vytvořena před 1 hodinou a 5 minutami, v 16:56 UTC
Severní vítr 5 kt
Teplota 12°C
Vlhkost vzduchu 94%
Tlak 1015 hPa
Viditelnost: 12.9 km
Zataženo ve výšce 600 ft
slabý déšť

METAR: KLHW 151656Z AUTO 36005KT 8SM -RA OVC006 12/11 A2996 RMK AO2 RAE1557DZB17E18RAB18E30DZB30E31RAB31 SLP149 P0002 T01180110 $

Čas: 13:01 (18:01 UTC)


TAF: chybějící

Stav a předpovědi počasí z více než 4 000 letišť (zprávy METAR a TAF).

Červené a žluté tečky na mapě představují dostupné meteorologické stanice.

Když kurzor umístíte na tečku, zobrazí se název stanice.

Pak kliknutím zobrazíte stav a předpověď počasí.

Chcete-li změnit mapu, kliknutím na zelené tlačítko se znaménkem +mapu přiblížíte, kliknutím na zelené tlačítko se znaménkem – mapu oddálíte a kliknutím na zelené šipky přejdete na sousední mapy.


METAR-TAF: